Medeiros Neto, Brazil
Current Conditions -  °F | °C
As of 3:00 PM on Tuesday 21 Oct 2014 (Local Time) from SBPS Reporting Station
Few Clouds Few Clouds  
Wind Chill: 81°   Ceiling: Unl
Heat Index: 84°   Visibility: 6mi
Dew Point: 70°   Wind: 15mph
Humidity: 70%   Direction: 80°E
Pressure: 29.94"   Gusts: NA
Location:  17.37°S, 40.22°W
Report Text: SBPS 211800Z 08013KT 9999 FEW020 27/21 Q1014
Loading
Personal Weather Stations






























Interactive Weather Map
Tropical Storm Tracking
New forecast layout! Learn more

10-Day Weather Forecast

Advertisements
Track Severe Weather on mobile